sensor_id;sensor_type;location;lat;lon;timestamp;temperature;humidity
33328;DHT22;19692;52.998;9.116;2023-03-18T00:00:08;10.40;99.90
33328;DHT22;19692;52.998;9.116;2023-03-18T00:02:36;10.40;99.90
33328;DHT22;19692;52.998;9.116;2023-03-18T00:05:04;10.30;99.90
33328;DHT22;19692;52.998;9.116;2023-03-18T00:07:32;10.30;99.90
33328;DHT22;19692;52.998;9.116;2023-03-18T00:09:58;10.40;99.90
33328;DHT22;19692;52.998;9.116;2023-03-18T00:12:24;10.30;99.90
33328;DHT22;19692;52.998;9.116;2023-03-18T00:14:50;10.30;99.90
33328;DHT22;19692;52.998;9.116;2023-03-18T00:17:16;10.30;99.90
33328;DHT22;19692;52.998;9.116;2023-03-18T00:19:42;10.30;99.90
33328;DHT22;19692;52.998;9.116;2023-03-18T00:22:09;10.30;99.90
33328;DHT22;19692;52.998;9.116;2023-03-18T00:24:38;10.30;99.90
33328;DHT22;19692;52.998;9.116;2023-03-18T00:27:05;10.30;99.90
33328;DHT22;19692;52.998;9.116;2023-03-18T00:29:30;10.30;99.90
33328;DHT22;19692;52.998;9.116;2023-03-18T00:31:57;10.40;99.90
33328;DHT22;19692;52.998;9.116;2023-03-18T00:34:23;10.30;99.90
33328;DHT22;19692;52.998;9.116;2023-03-18T00:36:49;10.30;99.90
33328;DHT22;19692;52.998;9.116;2023-03-18T00:39:21;10.20;99.90
33328;DHT22;19692;52.998;9.116;2023-03-18T00:41:53;10.20;99.90
33328;DHT22;19692;52.998;9.116;2023-03-18T00:44:19;10.20;99.90
33328;DHT22;19692;52.998;9.116;2023-03-18T00:46:45;10.20;99.90
33328;DHT22;19692;52.998;9.116;2023-03-18T00:49:11;10.20;99.90
33328;DHT22;19692;52.998;9.116;2023-03-18T00:51:37;10.20;99.90
33328;DHT22;19692;52.998;9.116;2023-03-18T00:54:07;10.20;99.90
33328;DHT22;19692;52.998;9.116;2023-03-18T00:56:36;10.20;99.90
33328;DHT22;19692;52.998;9.116;2023-03-18T00:59:03;10.20;99.90
33328;DHT22;19692;52.998;9.116;2023-03-18T01:01:31;10.20;99.90
33328;DHT22;19692;52.998;9.116;2023-03-18T01:03:57;10.10;99.90
33328;DHT22;19692;52.998;9.116;2023-03-18T01:06:26;10.10;99.90
33328;DHT22;19692;52.998;9.116;2023-03-18T01:08:53;10.10;99.90
33328;DHT22;19692;52.998;9.116;2023-03-18T01:11:20;10.10;99.90
33328;DHT22;19692;52.998;9.116;2023-03-18T01:13:47;10.10;99.90
33328;DHT22;19692;52.998;9.116;2023-03-18T01:16:14;10.10;99.90
33328;DHT22;19692;52.998;9.116;2023-03-18T01:18:40;10.10;99.90
33328;DHT22;19692;52.998;9.116;2023-03-18T01:21:07;10.10;99.90
33328;DHT22;19692;52.998;9.116;2023-03-18T01:23:34;10.10;99.90
33328;DHT22;19692;52.998;9.116;2023-03-18T01:26:01;10.10;99.90
33328;DHT22;19692;52.998;9.116;2023-03-18T01:28:27;10.10;99.90
33328;DHT22;19692;52.998;9.116;2023-03-18T01:30:54;10.10;99.90
33328;DHT22;19692;52.998;9.116;2023-03-18T01:33:22;10.00;99.90
33328;DHT22;19692;52.998;9.116;2023-03-18T01:35:53;10.00;99.90
33328;DHT22;19692;52.998;9.116;2023-03-18T01:38:20;10.00;99.90
33328;DHT22;19692;52.998;9.116;2023-03-18T01:40:47;10.00;99.90
33328;DHT22;19692;52.998;9.116;2023-03-18T01:43:18;10.00;99.90
33328;DHT22;19692;52.998;9.116;2023-03-18T01:45:51;10.00;99.90
33328;DHT22;19692;52.998;9.116;2023-03-18T01:48:26;10.00;99.90
33328;DHT22;19692;52.998;9.116;2023-03-18T01:50:57;10.00;99.90
33328;DHT22;19692;52.998;9.116;2023-03-18T01:53:28;10.00;99.90
33328;DHT22;19692;52.998;9.116;2023-03-18T01:55:58;10.00;99.90
33328;DHT22;19692;52.998;9.116;2023-03-18T01:58:33;9.90;99.90
33328;DHT22;19692;52.998;9.116;2023-03-18T02:01:24;9.90;99.90
33328;DHT22;19692;52.998;9.116;2023-03-18T02:03:55;10.00;99.90
33328;DHT22;19692;52.998;9.116;2023-03-18T02:06:23;9.90;99.90
33328;DHT22;19692;52.998;9.116;2023-03-18T02:08:49;9.90;99.90
33328;DHT22;19692;52.998;9.116;2023-03-18T02:11:15;9.90;99.90
33328;DHT22;19692;52.998;9.116;2023-03-18T02:13:43;9.90;99.90
33328;DHT22;19692;52.998;9.116;2023-03-18T02:16:42;9.90;99.90
33328;DHT22;19692;52.998;9.116;2023-03-18T02:22:34;9.80;99.90
33328;DHT22;19692;52.998;9.116;2023-03-18T02:25:15;9.80;99.90
33328;DHT22;19692;52.998;9.116;2023-03-18T02:27:50;9.80;99.90
33328;DHT22;19692;52.998;9.116;2023-03-18T02:30:26;9.70;99.90
33328;DHT22;19692;52.998;9.116;2023-03-18T02:32:55;9.70;99.90
33328;DHT22;19692;52.998;9.116;2023-03-18T02:35:22;9.60;99.90
33328;DHT22;19692;52.998;9.116;2023-03-18T02:37:48;9.60;99.90
33328;DHT22;19692;52.998;9.116;2023-03-18T02:42:55;9.60;99.90
33328;DHT22;19692;52.998;9.116;2023-03-18T02:48:19;9.50;99.90
33328;DHT22;19692;52.998;9.116;2023-03-18T02:50:47;9.50;99.90
33328;DHT22;19692;52.998;9.116;2023-03-18T02:53:14;9.50;99.90
33328;DHT22;19692;52.998;9.116;2023-03-18T02:55:40;9.50;99.90
33328;DHT22;19692;52.998;9.116;2023-03-18T02:58:07;9.40;99.90
33328;DHT22;19692;52.998;9.116;2023-03-18T03:00:34;9.40;99.90
33328;DHT22;19692;52.998;9.116;2023-03-18T03:03:00;9.40;99.90
33328;DHT22;19692;52.998;9.116;2023-03-18T03:05:27;9.40;99.90
33328;DHT22;19692;52.998;9.116;2023-03-18T03:07:52;9.40;99.90
33328;DHT22;19692;52.998;9.116;2023-03-18T03:10:18;9.40;99.90
33328;DHT22;19692;52.998;9.116;2023-03-18T03:12:44;9.40;99.90
33328;DHT22;19692;52.998;9.116;2023-03-18T03:15:10;9.40;99.90
33328;DHT22;19692;52.998;9.116;2023-03-18T03:17:36;9.50;99.90
33328;DHT22;19692;52.998;9.116;2023-03-18T03:20:04;9.50;99.90
33328;DHT22;19692;52.998;9.116;2023-03-18T03:22:31;9.40;99.90
33328;DHT22;19692;52.998;9.116;2023-03-18T03:24:58;9.40;99.90
33328;DHT22;19692;52.998;9.116;2023-03-18T03:27:26;9.40;99.90
33328;DHT22;19692;52.998;9.116;2023-03-18T03:29:52;9.40;99.90
33328;DHT22;19692;52.998;9.116;2023-03-18T03:32:18;9.40;99.90
33328;DHT22;19692;52.998;9.116;2023-03-18T03:34:44;9.40;99.90
33328;DHT22;19692;52.998;9.116;2023-03-18T03:37:11;9.40;99.90
33328;DHT22;19692;52.998;9.116;2023-03-18T03:39:36;9.40;99.90
33328;DHT22;19692;52.998;9.116;2023-03-18T03:42:02;9.30;99.90
33328;DHT22;19692;52.998;9.116;2023-03-18T03:44:28;9.30;99.90
33328;DHT22;19692;52.998;9.116;2023-03-18T03:46:54;9.30;99.90
33328;DHT22;19692;52.998;9.116;2023-03-18T03:49:20;9.30;99.90
33328;DHT22;19692;52.998;9.116;2023-03-18T03:51:46;9.30;99.90
33328;DHT22;19692;52.998;9.116;2023-03-18T03:54:13;9.30;99.90
33328;DHT22;19692;52.998;9.116;2023-03-18T03:56:40;9.30;99.90
33328;DHT22;19692;52.998;9.116;2023-03-18T03:59:07;9.40;99.90
33328;DHT22;19692;52.998;9.116;2023-03-18T04:01:32;9.40;99.90
33328;DHT22;19692;52.998;9.116;2023-03-18T04:03:59;9.30;99.90
33328;DHT22;19692;52.998;9.116;2023-03-18T04:06:27;9.30;99.90
33328;DHT22;19692;52.998;9.116;2023-03-18T04:08:53;9.40;99.90
33328;DHT22;19692;52.998;9.116;2023-03-18T04:11:19;9.40;99.90
33328;DHT22;19692;52.998;9.116;2023-03-18T04:13:45;9.50;99.90
33328;DHT22;19692;52.998;9.116;2023-03-18T04:16:11;9.40;99.90
33328;DHT22;19692;52.998;9.116;2023-03-18T04:18:37;9.40;99.90
33328;DHT22;19692;52.998;9.116;2023-03-18T04:21:03;9.50;99.90
33328;DHT22;19692;52.998;9.116;2023-03-18T04:23:29;9.50;99.90
33328;DHT22;19692;52.998;9.116;2023-03-18T04:25:54;9.50;99.90
33328;DHT22;19692;52.998;9.116;2023-03-18T04:28:20;9.50;99.90
33328;DHT22;19692;52.998;9.116;2023-03-18T04:30:47;9.60;99.90
33328;DHT22;19692;52.998;9.116;2023-03-18T04:33:13;9.50;99.90
33328;DHT22;19692;52.998;9.116;2023-03-18T04:35:39;9.60;99.90
33328;DHT22;19692;52.998;9.116;2023-03-18T04:38:08;9.60;99.90
33328;DHT22;19692;52.998;9.116;2023-03-18T04:40:34;9.60;99.90
33328;DHT22;19692;52.998;9.116;2023-03-18T04:43:00;9.60;99.90
33328;DHT22;19692;52.998;9.116;2023-03-18T04:45:26;9.60;99.90
33328;DHT22;19692;52.998;9.116;2023-03-18T04:47:52;9.60;99.90
33328;DHT22;19692;52.998;9.116;2023-03-18T04:50:18;9.60;99.90
33328;DHT22;19692;52.998;9.116;2023-03-18T04:52:45;9.60;99.90
33328;DHT22;19692;52.998;9.116;2023-03-18T04:55:12;9.60;99.90
33328;DHT22;19692;52.998;9.116;2023-03-18T04:57:39;9.60;99.90
33328;DHT22;19692;52.998;9.116;2023-03-18T05:00:09;9.70;99.90
33328;DHT22;19692;52.998;9.116;2023-03-18T05:02:37;9.70;99.90
33328;DHT22;19692;52.998;9.116;2023-03-18T05:05:04;9.70;99.90
33328;DHT22;19692;52.998;9.116;2023-03-18T05:07:30;9.70;99.90
33328;DHT22;19692;52.998;9.116;2023-03-18T05:09:56;9.70;99.90
33328;DHT22;19692;52.998;9.116;2023-03-18T05:12:22;9.70;99.90
33328;DHT22;19692;52.998;9.116;2023-03-18T05:14:50;9.70;99.90
33328;DHT22;19692;52.998;9.116;2023-03-18T05:17:16;9.70;99.90
33328;DHT22;19692;52.998;9.116;2023-03-18T05:19:44;9.70;99.90
33328;DHT22;19692;52.998;9.116;2023-03-18T05:22:11;9.60;99.90
33328;DHT22;19692;52.998;9.116;2023-03-18T05:24:38;9.60;99.90
33328;DHT22;19692;52.998;9.116;2023-03-18T05:27:05;9.60;99.90
33328;DHT22;19692;52.998;9.116;2023-03-18T05:29:31;9.50;99.90
33328;DHT22;19692;52.998;9.116;2023-03-18T05:31:57;9.50;99.90
33328;DHT22;19692;52.998;9.116;2023-03-18T05:34:23;9.40;99.90
33328;DHT22;19692;52.998;9.116;2023-03-18T05:36:49;9.30;99.90
33328;DHT22;19692;52.998;9.116;2023-03-18T05:39:15;9.20;99.90
33328;DHT22;19692;52.998;9.116;2023-03-18T05:41:41;9.20;99.90
33328;DHT22;19692;52.998;9.116;2023-03-18T05:44:07;9.20;99.90
33328;DHT22;19692;52.998;9.116;2023-03-18T05:46:33;9.20;99.90
33328;DHT22;19692;52.998;9.116;2023-03-18T05:48:59;9.20;99.90
33328;DHT22;19692;52.998;9.116;2023-03-18T05:51:24;9.20;99.90
33328;DHT22;19692;52.998;9.116;2023-03-18T05:53:51;9.20;99.90
33328;DHT22;19692;52.998;9.116;2023-03-18T05:56:17;9.30;99.90
33328;DHT22;19692;52.998;9.116;2023-03-18T05:58:43;9.30;99.90
33328;DHT22;19692;52.998;9.116;2023-03-18T06:01:08;9.30;99.90
33328;DHT22;19692;52.998;9.116;2023-03-18T06:03:35;9.30;99.90
33328;DHT22;19692;52.998;9.116;2023-03-18T06:06:01;9.30;99.90
33328;DHT22;19692;52.998;9.116;2023-03-18T06:08:27;9.40;99.90
33328;DHT22;19692;52.998;9.116;2023-03-18T06:10:53;9.40;99.90
33328;DHT22;19692;52.998;9.116;2023-03-18T06:13:19;9.40;99.90
33328;DHT22;19692;52.998;9.116;2023-03-18T06:15:46;9.40;99.90
33328;DHT22;19692;52.998;9.116;2023-03-18T06:18:12;9.40;99.90
33328;DHT22;19692;52.998;9.116;2023-03-18T06:20:39;9.40;99.90
33328;DHT22;19692;52.998;9.116;2023-03-18T06:23:05;9.40;99.90
33328;DHT22;19692;52.998;9.116;2023-03-18T06:25:31;9.30;99.90
33328;DHT22;19692;52.998;9.116;2023-03-18T06:27:57;9.30;99.90
33328;DHT22;19692;52.998;9.116;2023-03-18T06:30:23;9.30;99.90
33328;DHT22;19692;52.998;9.116;2023-03-18T06:32:48;9.40;99.90
33328;DHT22;19692;52.998;9.116;2023-03-18T06:35:15;9.40;99.90
33328;DHT22;19692;52.998;9.116;2023-03-18T06:37:41;9.40;99.90
33328;DHT22;19692;52.998;9.116;2023-03-18T06:40:08;9.40;99.90
33328;DHT22;19692;52.998;9.116;2023-03-18T06:42:35;9.30;99.90
33328;DHT22;19692;52.998;9.116;2023-03-18T06:45:01;9.40;99.90
33328;DHT22;19692;52.998;9.116;2023-03-18T06:47:28;9.40;99.90
33328;DHT22;19692;52.998;9.116;2023-03-18T06:49:54;9.40;99.90
33328;DHT22;19692;52.998;9.116;2023-03-18T06:52:21;9.40;99.90
33328;DHT22;19692;52.998;9.116;2023-03-18T06:54:47;9.40;99.90
33328;DHT22;19692;52.998;9.116;2023-03-18T06:57:13;9.40;99.90
33328;DHT22;19692;52.998;9.116;2023-03-18T06:59:39;9.40;99.90
33328;DHT22;19692;52.998;9.116;2023-03-18T07:02:06;9.50;99.90
33328;DHT22;19692;52.998;9.116;2023-03-18T07:04:32;9.50;99.90
33328;DHT22;19692;52.998;9.116;2023-03-18T07:06:58;9.50;99.90
33328;DHT22;19692;52.998;9.116;2023-03-18T07:09:25;9.50;99.90
33328;DHT22;19692;52.998;9.116;2023-03-18T07:11:51;9.50;99.90
33328;DHT22;19692;52.998;9.116;2023-03-18T07:14:18;9.50;99.90
33328;DHT22;19692;52.998;9.116;2023-03-18T07:16:44;9.50;99.90
33328;DHT22;19692;52.998;9.116;2023-03-18T07:19:10;9.60;99.90
33328;DHT22;19692;52.998;9.116;2023-03-18T07:21:36;9.60;99.90
33328;DHT22;19692;52.998;9.116;2023-03-18T07:24:02;9.60;99.90
33328;DHT22;19692;52.998;9.116;2023-03-18T07:26:28;9.60;99.90
33328;DHT22;19692;52.998;9.116;2023-03-18T07:28:54;9.70;99.90
33328;DHT22;19692;52.998;9.116;2023-03-18T07:31:20;9.80;99.90
33328;DHT22;19692;52.998;9.116;2023-03-18T07:33:46;9.90;99.90
33328;DHT22;19692;52.998;9.116;2023-03-18T07:36:12;10.00;99.90
33328;DHT22;19692;52.998;9.116;2023-03-18T07:38:37;10.10;99.90
33328;DHT22;19692;52.998;9.116;2023-03-18T07:41:04;10.10;99.90
33328;DHT22;19692;52.998;9.116;2023-03-18T07:43:30;10.20;99.90
33328;DHT22;19692;52.998;9.116;2023-03-18T07:45:56;10.20;99.90
33328;DHT22;19692;52.998;9.116;2023-03-18T07:48:23;10.20;99.90
33328;DHT22;19692;52.998;9.116;2023-03-18T07:50:48;10.30;99.90
33328;DHT22;19692;52.998;9.116;2023-03-18T07:53:14;10.30;99.90
33328;DHT22;19692;52.998;9.116;2023-03-18T07:55:40;10.30;99.90
33328;DHT22;19692;52.998;9.116;2023-03-18T07:58:06;10.20;99.90
33328;DHT22;19692;52.998;9.116;2023-03-18T08:00:33;10.20;99.90
33328;DHT22;19692;52.998;9.116;2023-03-18T08:03:00;10.20;99.90
33328;DHT22;19692;52.998;9.116;2023-03-18T08:05:26;10.30;99.90
33328;DHT22;19692;52.998;9.116;2023-03-18T08:07:52;10.30;99.90
33328;DHT22;19692;52.998;9.116;2023-03-18T08:10:18;10.40;99.90
33328;DHT22;19692;52.998;9.116;2023-03-18T08:12:45;10.40;99.90
33328;DHT22;19692;52.998;9.116;2023-03-18T08:15:11;10.40;99.90
33328;DHT22;19692;52.998;9.116;2023-03-18T08:17:37;10.50;99.90
33328;DHT22;19692;52.998;9.116;2023-03-18T08:20:04;10.50;99.90
33328;DHT22;19692;52.998;9.116;2023-03-18T08:22:31;10.60;99.90
33328;DHT22;19692;52.998;9.116;2023-03-18T08:24:56;10.60;99.90
33328;DHT22;19692;52.998;9.116;2023-03-18T08:27:23;10.60;99.90
33328;DHT22;19692;52.998;9.116;2023-03-18T08:29:49;10.70;99.90
33328;DHT22;19692;52.998;9.116;2023-03-18T08:32:15;10.70;99.90
33328;DHT22;19692;52.998;9.116;2023-03-18T08:34:42;10.60;99.90
33328;DHT22;19692;52.998;9.116;2023-03-18T08:37:08;10.70;99.90
33328;DHT22;19692;52.998;9.116;2023-03-18T08:39:34;10.70;99.90
33328;DHT22;19692;52.998;9.116;2023-03-18T08:42:04;10.80;99.90
33328;DHT22;19692;52.998;9.116;2023-03-18T08:44:30;10.80;99.90
33328;DHT22;19692;52.998;9.116;2023-03-18T08:46:56;10.90;99.90
33328;DHT22;19692;52.998;9.116;2023-03-18T08:49:22;10.90;99.90
33328;DHT22;19692;52.998;9.116;2023-03-18T08:51:49;11.00;99.90
33328;DHT22;19692;52.998;9.116;2023-03-18T08:54:16;11.00;99.90
33328;DHT22;19692;52.998;9.116;2023-03-18T08:56:41;11.00;99.90
33328;DHT22;19692;52.998;9.116;2023-03-18T08:59:08;11.00;99.90
33328;DHT22;19692;52.998;9.116;2023-03-18T09:01:34;11.00;99.90
33328;DHT22;19692;52.998;9.116;2023-03-18T09:04:00;11.10;99.90
33328;DHT22;19692;52.998;9.116;2023-03-18T09:06:27;11.20;99.90
33328;DHT22;19692;52.998;9.116;2023-03-18T09:08:53;11.30;99.90
33328;DHT22;19692;52.998;9.116;2023-03-18T09:11:19;11.40;99.90
33328;DHT22;19692;52.998;9.116;2023-03-18T09:13:44;11.50;99.90
33328;DHT22;19692;52.998;9.116;2023-03-18T09:16:10;11.60;99.90
33328;DHT22;19692;52.998;9.116;2023-03-18T09:18:36;11.60;99.90
33328;DHT22;19692;52.998;9.116;2023-03-18T09:21:04;11.70;99.90
33328;DHT22;19692;52.998;9.116;2023-03-18T09:23:30;11.60;99.90
33328;DHT22;19692;52.998;9.116;2023-03-18T09:25:57;11.60;99.90
33328;DHT22;19692;52.998;9.116;2023-03-18T09:28:24;11.60;99.90
33328;DHT22;19692;52.998;9.116;2023-03-18T09:30:50;11.70;99.90
33328;DHT22;19692;52.998;9.116;2023-03-18T09:33:16;11.70;99.90
33328;DHT22;19692;52.998;9.116;2023-03-18T09:35:42;11.70;99.90
33328;DHT22;19692;52.998;9.116;2023-03-18T09:38:17;11.70;99.90
33328;DHT22;19692;52.998;9.116;2023-03-18T09:43:54;11.70;99.90
33328;DHT22;19692;52.998;9.116;2023-03-18T09:46:45;11.70;99.90
33328;DHT22;19692;52.998;9.116;2023-03-18T09:52:19;11.80;99.90
33328;DHT22;19692;52.998;9.116;2023-03-18T09:57:45;12.00;99.90
33328;DHT22;19692;52.998;9.116;2023-03-18T10:03:11;12.20;99.90
33328;DHT22;19692;52.998;9.116;2023-03-18T10:08:43;12.40;99.90
33328;DHT22;19692;52.998;9.116;2023-03-18T10:11:34;12.60;99.90
33328;DHT22;19692;52.998;9.116;2023-03-18T10:14:36;12.80;99.90
33328;DHT22;19692;52.998;9.116;2023-03-18T10:17:20;12.80;99.90
33328;DHT22;19692;52.998;9.116;2023-03-18T10:20:25;12.90;99.90
33328;DHT22;19692;52.998;9.116;2023-03-18T10:23:37;13.00;99.90
33328;DHT22;19692;52.998;9.116;2023-03-18T10:26:26;13.00;99.90
33328;DHT22;19692;52.998;9.116;2023-03-18T10:29:27;13.10;99.90
33328;DHT22;19692;52.998;9.116;2023-03-18T10:32:31;13.20;99.90
33328;DHT22;19692;52.998;9.116;2023-03-18T10:35:12;13.40;99.90
33328;DHT22;19692;52.998;9.116;2023-03-18T10:40:34;13.70;99.90
33328;DHT22;19692;52.998;9.116;2023-03-18T10:43:02;13.90;99.90
33328;DHT22;19692;52.998;9.116;2023-03-18T10:45:30;14.00;99.90
33328;DHT22;19692;52.998;9.116;2023-03-18T10:48:17;14.00;99.90
33328;DHT22;19692;52.998;9.116;2023-03-18T10:50:55;13.70;99.90
33328;DHT22;19692;52.998;9.116;2023-03-18T10:54:03;13.80;99.90
33328;DHT22;19692;52.998;9.116;2023-03-18T10:56:37;13.90;99.90
33328;DHT22;19692;52.998;9.116;2023-03-18T10:59:15;14.00;99.90
33328;DHT22;19692;52.998;9.116;2023-03-18T11:02:03;14.10;99.90
33328;DHT22;19692;52.998;9.116;2023-03-18T11:04:46;14.10;99.90
33328;DHT22;19692;52.998;9.116;2023-03-18T11:07:18;14.10;99.90
33328;DHT22;19692;52.998;9.116;2023-03-18T11:09:47;14.30;99.90
33328;DHT22;19692;52.998;9.116;2023-03-18T11:12:22;14.40;99.90
33328;DHT22;19692;52.998;9.116;2023-03-18T11:14:53;14.70;99.90
33328;DHT22;19692;52.998;9.116;2023-03-18T11:17:30;14.70;99.90
33328;DHT22;19692;52.998;9.116;2023-03-18T11:20:05;14.80;99.90
33328;DHT22;19692;52.998;9.116;2023-03-18T11:22:44;15.00;99.90
33328;DHT22;19692;52.998;9.116;2023-03-18T11:25:17;15.00;99.90
33328;DHT22;19692;52.998;9.116;2023-03-18T11:27:50;15.00;99.90
33328;DHT22;19692;52.998;9.116;2023-03-18T11:30:43;15.30;99.90
33328;DHT22;19692;52.998;9.116;2023-03-18T11:38:19;15.30;99.90
33328;DHT22;19692;52.998;9.116;2023-03-18T11:40:51;15.40;99.90
33328;DHT22;19692;52.998;9.116;2023-03-18T11:43:22;15.40;99.90
33328;DHT22;19692;52.998;9.116;2023-03-18T11:46:04;15.30;99.90
33328;DHT22;19692;52.998;9.116;2023-03-18T11:48:42;15.10;99.90
33328;DHT22;19692;52.998;9.116;2023-03-18T12:05:18;15.30;99.90
33328;DHT22;19692;52.998;9.116;2023-03-18T12:31:31;16.60;99.90
33328;DHT22;19692;52.998;9.116;2023-03-18T12:34:13;16.80;99.90
33328;DHT22;19692;52.998;9.116;2023-03-18T12:36:57;17.20;99.90
33328;DHT22;19692;52.998;9.116;2023-03-18T12:40:00;17.50;99.90
33328;DHT22;19692;52.998;9.116;2023-03-18T12:42:53;17.60;99.90
33328;DHT22;19692;52.998;9.116;2023-03-18T12:45:24;17.70;99.90
33328;DHT22;19692;52.998;9.116;2023-03-18T12:47:59;17.90;99.90
33328;DHT22;19692;52.998;9.116;2023-03-18T12:50:41;17.50;99.90
33328;DHT22;19692;52.998;9.116;2023-03-18T12:55:44;17.20;99.90
33328;DHT22;19692;52.998;9.116;2023-03-18T12:58:17;16.80;99.90
33328;DHT22;19692;52.998;9.116;2023-03-18T13:04:03;17.00;99.90
33328;DHT22;19692;52.998;9.116;2023-03-18T13:06:40;16.80;99.90
33328;DHT22;19692;52.998;9.116;2023-03-18T13:09:38;16.50;99.90
33328;DHT22;19692;52.998;9.116;2023-03-18T13:12:23;16.60;99.90
33328;DHT22;19692;52.998;9.116;2023-03-18T13:17:48;17.40;99.90
33328;DHT22;19692;52.998;9.116;2023-03-18T13:20:21;17.30;99.90
33328;DHT22;19692;52.998;9.116;2023-03-18T13:23:05;17.40;99.90
33328;DHT22;19692;52.998;9.116;2023-03-18T13:32:00;17.40;99.90
33328;DHT22;19692;52.998;9.116;2023-03-18T13:43:18;17.70;99.90
33328;DHT22;19692;52.998;9.116;2023-03-18T13:45:49;17.90;99.90
33328;DHT22;19692;52.998;9.116;2023-03-18T13:51:12;18.50;99.90
33328;DHT22;19692;52.998;9.116;2023-03-18T13:53:43;18.40;99.90
33328;DHT22;19692;52.998;9.116;2023-03-18T13:56:45;18.30;99.90
33328;DHT22;19692;52.998;9.116;2023-03-18T14:02:59;18.40;99.90
33328;DHT22;19692;52.998;9.116;2023-03-18T14:05:36;18.20;99.90
33328;DHT22;19692;52.998;9.116;2023-03-18T14:13:50;18.20;99.90
33328;DHT22;19692;52.998;9.116;2023-03-18T14:16:26;18.60;99.90
33328;DHT22;19692;52.998;9.116;2023-03-18T14:21:45;19.60;99.90
33328;DHT22;19692;52.998;9.116;2023-03-18T14:27:07;19.50;99.90
33328;DHT22;19692;52.998;9.116;2023-03-18T14:29:39;19.60;99.90
33328;DHT22;19692;52.998;9.116;2023-03-18T14:32:40;19.20;99.90
33328;DHT22;19692;52.998;9.116;2023-03-18T14:38:17;18.90;99.90
33328;DHT22;19692;52.998;9.116;2023-03-18T14:40:49;18.50;99.90
33328;DHT22;19692;52.998;9.116;2023-03-18T14:43:28;18.20;99.90
33328;DHT22;19692;52.998;9.116;2023-03-18T14:46:16;18.20;99.90
33328;DHT22;19692;52.998;9.116;2023-03-18T14:48:44;18.30;99.90
33328;DHT22;19692;52.998;9.116;2023-03-18T14:51:16;18.10;99.90
33328;DHT22;19692;52.998;9.116;2023-03-18T14:53:49;18.00;99.90
33328;DHT22;19692;52.998;9.116;2023-03-18T14:56:22;17.70;99.90
33328;DHT22;19692;52.998;9.116;2023-03-18T14:58:53;17.70;99.90
33328;DHT22;19692;52.998;9.116;2023-03-18T15:01:33;17.60;99.90
33328;DHT22;19692;52.998;9.116;2023-03-18T15:04:01;17.60;99.90
33328;DHT22;19692;52.998;9.116;2023-03-18T15:06:28;17.70;99.90
33328;DHT22;19692;52.998;9.116;2023-03-18T15:11:56;18.10;99.90
33328;DHT22;19692;52.998;9.116;2023-03-18T15:14:30;18.00;99.90
33328;DHT22;19692;52.998;9.116;2023-03-18T15:17:03;18.10;99.90
33328;DHT22;19692;52.998;9.116;2023-03-18T15:19:30;18.10;99.90
33328;DHT22;19692;52.998;9.116;2023-03-18T15:22:00;17.90;99.90
33328;DHT22;19692;52.998;9.116;2023-03-18T15:24:30;17.80;99.90
33328;DHT22;19692;52.998;9.116;2023-03-18T15:27:04;17.50;99.90
33328;DHT22;19692;52.998;9.116;2023-03-18T15:32:28;17.30;99.90
33328;DHT22;19692;52.998;9.116;2023-03-18T15:35:16;17.50;99.90
33328;DHT22;19692;52.998;9.116;2023-03-18T15:37:46;17.20;99.90
33328;DHT22;19692;52.998;9.116;2023-03-18T15:43:04;17.30;99.90
33328;DHT22;19692;52.998;9.116;2023-03-18T15:45:44;17.50;99.90
33328;DHT22;19692;52.998;9.116;2023-03-18T15:48:23;17.80;99.90
33328;DHT22;19692;52.998;9.116;2023-03-18T15:50:54;17.50;99.90
33328;DHT22;19692;52.998;9.116;2023-03-18T15:53:28;17.30;99.90
33328;DHT22;19692;52.998;9.116;2023-03-18T15:56:42;17.10;99.90
33328;DHT22;19692;52.998;9.116;2023-03-18T16:01:44;16.40;99.90
33328;DHT22;19692;52.998;9.116;2023-03-18T16:04:15;16.20;99.90
33328;DHT22;19692;52.998;9.116;2023-03-18T16:06:42;16.20;99.90
33328;DHT22;19692;52.998;9.116;2023-03-18T16:09:20;16.10;99.90
33328;DHT22;19692;52.998;9.116;2023-03-18T16:12:00;16.40;99.90
33328;DHT22;19692;52.998;9.116;2023-03-18T16:14:41;16.70;99.90
33328;DHT22;19692;52.998;9.116;2023-03-18T16:17:12;17.00;99.90
33328;DHT22;19692;52.998;9.116;2023-03-18T16:19:40;17.00;99.90
33328;DHT22;19692;52.998;9.116;2023-03-18T16:22:08;17.00;99.90
33328;DHT22;19692;52.998;9.116;2023-03-18T16:24:34;17.10;99.90
33328;DHT22;19692;52.998;9.116;2023-03-18T16:27:02;17.20;99.90
33328;DHT22;19692;52.998;9.116;2023-03-18T16:29:35;17.10;99.90
33328;DHT22;19692;52.998;9.116;2023-03-18T16:32:02;17.10;99.90
33328;DHT22;19692;52.998;9.116;2023-03-18T16:34:29;17.10;99.90
33328;DHT22;19692;52.998;9.116;2023-03-18T16:36:55;16.70;99.90
33328;DHT22;19692;52.998;9.116;2023-03-18T16:39:26;16.50;99.90
33328;DHT22;19692;52.998;9.116;2023-03-18T16:42:01;16.40;99.90
33328;DHT22;19692;52.998;9.116;2023-03-18T16:44:36;16.40;99.90
33328;DHT22;19692;52.998;9.116;2023-03-18T16:47:02;16.20;99.90
33328;DHT22;19692;52.998;9.116;2023-03-18T16:49:33;16.20;99.90
33328;DHT22;19692;52.998;9.116;2023-03-18T16:52:01;16.00;99.90
33328;DHT22;19692;52.998;9.116;2023-03-18T16:54:31;15.90;99.90
33328;DHT22;19692;52.998;9.116;2023-03-18T16:56:59;15.80;99.90
33328;DHT22;19692;52.998;9.116;2023-03-18T16:59:35;15.60;99.90
33328;DHT22;19692;52.998;9.116;2023-03-18T17:02:02;15.50;99.90
33328;DHT22;19692;52.998;9.116;2023-03-18T17:04:31;15.50;99.90
33328;DHT22;19692;52.998;9.116;2023-03-18T17:07:00;15.40;99.90
33328;DHT22;19692;52.998;9.116;2023-03-18T17:09:29;15.40;99.90
33328;DHT22;19692;52.998;9.116;2023-03-18T17:11:59;15.50;99.90
33328;DHT22;19692;52.998;9.116;2023-03-18T17:14:41;15.40;99.90
33328;DHT22;19692;52.998;9.116;2023-03-18T17:17:29;15.40;99.90
33328;DHT22;19692;52.998;9.116;2023-03-18T17:19:58;15.30;99.90
33328;DHT22;19692;52.998;9.116;2023-03-18T17:22:31;15.20;99.90
33328;DHT22;19692;52.998;9.116;2023-03-18T17:24:58;15.10;99.90
33328;DHT22;19692;52.998;9.116;2023-03-18T17:27:36;15.10;99.90
33328;DHT22;19692;52.998;9.116;2023-03-18T17:30:16;14.90;99.90
33328;DHT22;19692;52.998;9.116;2023-03-18T17:32:44;14.70;99.90
33328;DHT22;19692;52.998;9.116;2023-03-18T17:35:18;14.60;99.90
33328;DHT22;19692;52.998;9.116;2023-03-18T17:37:46;14.50;99.90
33328;DHT22;19692;52.998;9.116;2023-03-18T17:40:14;14.40;99.90
33328;DHT22;19692;52.998;9.116;2023-03-18T17:42:42;14.30;99.90
33328;DHT22;19692;52.998;9.116;2023-03-18T17:48:13;14.10;99.90
33328;DHT22;19692;52.998;9.116;2023-03-18T17:50:40;14.00;99.90
33328;DHT22;19692;52.998;9.116;2023-03-18T17:53:22;14.00;99.90
33328;DHT22;19692;52.998;9.116;2023-03-18T17:55:54;13.90;99.90
33328;DHT22;19692;52.998;9.116;2023-03-18T17:58:21;13.80;99.90
33328;DHT22;19692;52.998;9.116;2023-03-18T18:00:49;13.80;99.90
33328;DHT22;19692;52.998;9.116;2023-03-18T18:03:20;13.70;99.90